createdAt,value
2022-10-26T00:01:21.153Z,4.47
2022-10-26T00:03:50.491Z,4.00
2022-10-26T00:06:20.039Z,4.63
2022-10-26T00:08:48.426Z,3.60
2022-10-26T00:11:16.768Z,4.73
2022-10-26T00:13:45.052Z,4.28
2022-10-26T00:16:14.715Z,4.07
2022-10-26T00:18:43.043Z,3.70
2022-10-26T00:21:12.674Z,4.73
2022-10-26T00:23:40.515Z,3.37
2022-10-26T00:26:08.336Z,4.30
2022-10-26T00:28:36.329Z,4.13
2022-10-26T00:31:07.864Z,4.53
2022-10-26T00:33:35.947Z,4.07
2022-10-26T00:36:03.672Z,4.20
2022-10-26T00:38:32.568Z,4.23
2022-10-26T00:41:00.328Z,4.30
2022-10-26T00:43:36.165Z,3.70
2022-10-26T00:46:09.394Z,3.60
2022-10-26T00:48:41.182Z,3.17
2022-10-26T00:51:13.550Z,5.63
2022-10-26T00:53:42.983Z,5.40
2022-10-26T00:56:10.777Z,6.00
2022-10-26T00:58:38.991Z,4.70
2022-10-26T01:01:06.623Z,4.07
2022-10-26T01:03:36.894Z,5.33
2022-10-26T01:06:06.289Z,5.40
2022-10-26T01:08:34.514Z,5.63
2022-10-26T01:11:04.389Z,5.30
2022-10-26T01:13:35.744Z,5.60
2022-10-26T01:16:26.978Z,5.57
2022-10-26T01:19:06.006Z,4.60
2022-10-26T01:21:55.646Z,4.57
2022-10-26T01:24:59.097Z,5.03
2022-10-26T01:27:32.919Z,4.60
2022-10-26T01:30:16.049Z,4.40
2022-10-26T01:32:50.393Z,3.97
2022-10-26T01:35:22.561Z,4.07
2022-10-26T01:37:56.783Z,4.30
2022-10-26T01:40:30.456Z,4.53
2022-10-26T01:43:01.606Z,5.10
2022-10-26T01:45:33.148Z,4.67
2022-10-26T01:48:03.238Z,4.20
2022-10-26T01:50:32.206Z,4.67
2022-10-26T01:52:59.921Z,4.10
2022-10-26T01:55:49.466Z,4.53
2022-10-26T01:58:51.007Z,4.50
2022-10-26T02:01:35.286Z,4.07
2022-10-26T02:04:15.904Z,3.60
2022-10-26T02:06:53.609Z,3.97
2022-10-26T02:09:29.776Z,3.57
2022-10-26T02:11:58.103Z,4.07
2022-10-26T02:14:33.629Z,3.77
2022-10-26T02:17:08.013Z,4.27
2022-10-26T02:19:41.659Z,4.00
2022-10-26T02:22:16.697Z,4.57
2022-10-26T02:24:45.607Z,3.87
2022-10-26T02:27:17.480Z,3.73
2022-10-26T02:29:45.413Z,3.10
2022-10-26T02:32:15.205Z,4.53
2022-10-26T02:34:47.553Z,3.70
2022-10-26T02:37:18.519Z,3.87
2022-10-26T02:39:47.872Z,3.53
2022-10-26T02:42:16.615Z,4.33
2022-10-26T02:44:50.006Z,3.70
2022-10-26T02:47:20.621Z,3.53
2022-10-26T02:49:48.642Z,3.70
2022-10-26T02:52:24.041Z,3.40
2022-10-26T02:54:56.015Z,3.20
2022-10-26T02:57:28.800Z,3.40
2022-10-26T02:59:57.952Z,4.30
2022-10-26T03:02:30.066Z,4.10
2022-10-26T03:04:58.152Z,3.77
2022-10-26T03:07:26.661Z,3.93
2022-10-26T03:09:54.192Z,3.77
2022-10-26T03:12:21.893Z,3.67
2022-10-26T03:14:49.419Z,3.40
2022-10-26T03:17:17.105Z,3.90
2022-10-26T03:19:46.013Z,4.77
2022-10-26T03:22:13.625Z,3.70
2022-10-26T03:24:41.699Z,3.80
2022-10-26T03:27:09.257Z,3.83
2022-10-26T03:29:36.821Z,3.90
2022-10-26T03:32:04.509Z,3.50
2022-10-26T03:34:32.077Z,4.20
2022-10-26T03:37:02.688Z,2.80
2022-10-26T03:39:30.319Z,3.73
2022-10-26T03:41:57.911Z,3.27
2022-10-26T03:44:25.438Z,3.57
2022-10-26T03:46:52.990Z,3.20
2022-10-26T03:49:20.642Z,3.23
2022-10-26T03:51:48.313Z,3.57
2022-10-26T03:54:18.409Z,3.43
2022-10-26T03:56:45.997Z,3.37
2022-10-26T03:59:13.689Z,3.50
2022-10-26T04:01:41.317Z,3.23
2022-10-26T04:04:09.043Z,3.40
2022-10-26T04:06:37.358Z,4.23
2022-10-26T04:09:05.141Z,4.30
2022-10-26T04:11:34.025Z,3.50
2022-10-26T04:14:01.783Z,2.90
2022-10-26T04:16:32.539Z,3.13
2022-10-26T04:19:01.221Z,3.30
2022-10-26T04:21:28.887Z,3.10
2022-10-26T04:23:56.505Z,4.00
2022-10-26T04:26:24.110Z,3.67
2022-10-26T04:28:53.132Z,2.80
2022-10-26T04:31:20.725Z,3.00
2022-10-26T04:33:48.304Z,3.63
2022-10-26T04:36:15.917Z,3.40
2022-10-26T04:38:43.541Z,4.40
2022-10-26T04:41:11.327Z,4.30
2022-10-26T04:43:38.881Z,3.67
2022-10-26T04:46:08.137Z,2.93
2022-10-26T04:48:35.714Z,2.67
2022-10-26T04:51:03.288Z,3.20
2022-10-26T04:53:30.833Z,3.17
2022-10-26T04:55:59.075Z,3.20
2022-10-26T04:58:26.892Z,3.33
2022-10-26T05:00:54.554Z,2.83
2022-10-26T05:03:23.546Z,3.37
2022-10-26T05:05:51.169Z,4.13
2022-10-26T05:08:18.774Z,3.00
2022-10-26T05:10:49.905Z,2.83
2022-10-26T05:13:18.154Z,3.57
2022-10-26T05:15:45.738Z,2.67
2022-10-26T05:18:13.404Z,2.53
2022-10-26T05:20:42.374Z,3.60
2022-10-26T05:23:13.842Z,3.50
2022-10-26T05:25:41.472Z,2.63
2022-10-26T05:28:13.257Z,2.43
2022-10-26T05:30:41.009Z,2.83
2022-10-26T05:33:10.562Z,2.43
2022-10-26T05:35:38.232Z,3.40
2022-10-26T05:38:10.962Z,3.20
2022-10-26T05:40:38.574Z,3.10
2022-10-26T05:43:06.191Z,3.30
2022-10-26T05:45:33.788Z,3.40
2022-10-26T05:48:03.181Z,3.37
2022-10-26T05:50:31.148Z,3.00
2022-10-26T05:52:58.727Z,3.20
2022-10-26T05:55:28.344Z,3.33
2022-10-26T05:57:56.363Z,3.70
2022-10-26T06:00:26.962Z,3.30
2022-10-26T06:03:09.028Z,3.40
2022-10-26T06:05:46.408Z,2.97
2022-10-26T06:08:14.566Z,3.47
2022-10-26T06:10:44.274Z,3.30
2022-10-26T06:13:12.417Z,2.97
2022-10-26T06:15:49.455Z,2.83
2022-10-26T06:18:26.361Z,3.47
2022-10-26T06:21:07.828Z,3.80
2022-10-26T06:23:45.335Z,3.23
2022-10-26T06:26:25.208Z,3.63
2022-10-26T06:29:02.701Z,3.90
2022-10-26T06:31:30.566Z,4.33
2022-10-26T06:34:00.394Z,3.53
2022-10-26T06:36:29.679Z,4.90
2022-10-26T06:39:02.201Z,4.13
2022-10-26T06:41:33.062Z,4.20
2022-10-26T06:44:02.316Z,3.53
2022-10-26T06:46:40.222Z,3.90
2022-10-26T06:49:18.909Z,3.40
2022-10-26T06:51:52.547Z,3.90
2022-10-26T06:54:24.445Z,3.00
2022-10-26T06:56:54.177Z,4.40
2022-10-26T06:59:33.363Z,3.63
2022-10-26T07:02:04.193Z,3.70
2022-10-26T07:04:34.052Z,3.73
2022-10-26T07:07:01.800Z,4.10
2022-10-26T07:09:29.510Z,3.70
2022-10-26T07:11:58.490Z,4.23
2022-10-26T07:14:26.045Z,5.13
2022-10-26T07:16:54.386Z,3.80
2022-10-26T07:19:21.961Z,3.30
2022-10-26T07:21:49.969Z,3.10
2022-10-26T07:24:17.514Z,3.45
2022-10-26T07:26:45.246Z,4.37
2022-10-26T07:29:14.418Z,3.43
2022-10-26T07:31:42.003Z,4.50
2022-10-26T07:34:09.665Z,4.13
2022-10-26T07:36:37.781Z,3.93
2022-10-26T07:39:05.897Z,4.00
2022-10-26T07:41:34.088Z,5.80
2022-10-26T07:44:01.665Z,4.70
2022-10-26T07:46:30.679Z,5.17
2022-10-26T07:48:58.396Z,4.43
2022-10-26T07:51:26.180Z,4.80
2022-10-26T07:53:53.861Z,4.80
2022-10-26T07:56:21.402Z,5.60
2022-10-26T07:58:48.998Z,4.67
2022-10-26T08:01:17.272Z,5.37
2022-10-26T08:03:46.521Z,5.23
2022-10-26T08:06:14.734Z,4.93
2022-10-26T08:08:46.398Z,4.73
2022-10-26T08:11:16.184Z,5.03
2022-10-26T08:13:44.077Z,5.70
2022-10-26T08:16:12.333Z,5.90
2022-10-26T08:18:40.093Z,5.17
2022-10-26T08:21:15.629Z,6.40
2022-10-26T08:23:48.978Z,6.20
2022-10-26T08:26:18.045Z,6.10
2022-10-26T08:28:49.964Z,6.50
2022-10-26T08:31:17.822Z,6.43
2022-10-26T08:33:45.456Z,5.90
2022-10-26T08:36:19.781Z,5.23
2022-10-26T08:38:48.894Z,5.33
2022-10-26T08:41:16.833Z,5.80
2022-10-26T08:43:49.045Z,5.90
2022-10-26T08:46:20.928Z,5.97
2022-10-26T08:48:54.321Z,5.57
2022-10-26T08:51:26.957Z,5.27
2022-10-26T08:54:00.102Z,5.53
2022-10-26T08:56:30.330Z,5.70
2022-10-26T08:59:02.377Z,6.00
2022-10-26T09:01:32.352Z,5.20
2022-10-26T09:04:03.124Z,6.17
2022-10-26T09:06:42.290Z,5.60
2022-10-26T09:09:17.909Z,5.93
2022-10-26T09:11:56.710Z,6.13
2022-10-26T09:14:40.479Z,6.00
2022-10-26T09:17:15.574Z,5.77
2022-10-26T09:20:01.397Z,5.10
2022-10-26T09:22:39.131Z,5.50
2022-10-26T09:25:19.891Z,6.20
2022-10-26T09:27:51.489Z,4.90
2022-10-26T09:30:21.970Z,5.70
2022-10-26T09:32:51.359Z,4.20
2022-10-26T09:35:23.057Z,4.20
2022-10-26T09:37:57.405Z,5.23
2022-10-26T09:40:34.027Z,5.53
2022-10-26T09:43:06.649Z,6.37
2022-10-26T09:45:38.689Z,5.07
2022-10-26T09:48:12.461Z,4.73
2022-10-26T09:50:42.601Z,6.03
2022-10-26T09:53:11.669Z,3.93
2022-10-26T09:55:43.533Z,4.33
2022-10-26T09:58:16.928Z,4.00
2022-10-26T10:00:46.040Z,4.33
2022-10-26T10:03:22.594Z,4.20
2022-10-26T10:05:52.206Z,4.20
2022-10-26T10:08:23.974Z,4.20
2022-10-26T10:11:00.919Z,4.50
2022-10-26T10:13:31.246Z,4.30
2022-10-26T10:16:04.616Z,3.93
2022-10-26T10:18:36.052Z,4.33
2022-10-26T10:21:05.801Z,3.80
2022-10-26T10:23:36.831Z,4.27
2022-10-26T10:26:11.068Z,3.87
2022-10-26T10:28:40.845Z,3.60
2022-10-26T10:31:20.806Z,3.70
2022-10-26T10:33:49.314Z,3.63
2022-10-26T10:36:19.714Z,3.20
2022-10-26T10:38:50.669Z,3.10
2022-10-26T10:41:22.878Z,2.93
2022-10-26T10:43:53.983Z,3.33
2022-10-26T10:46:25.020Z,2.70
2022-10-26T10:49:01.904Z,4.20
2022-10-26T10:51:32.700Z,3.93
2022-10-26T10:54:01.753Z,3.30
2022-10-26T10:56:41.269Z,4.10
2022-10-26T10:59:29.322Z,3.70
2022-10-26T11:02:16.301Z,3.33
2022-10-26T11:04:57.642Z,3.37
2022-10-26T11:07:26.595Z,3.30
2022-10-26T11:09:57.400Z,3.80
2022-10-26T11:12:30.699Z,3.67
2022-10-26T11:15:03.069Z,3.37
2022-10-26T11:17:33.545Z,2.27
2022-10-26T11:20:07.437Z,3.57
2022-10-26T11:22:41.517Z,2.67
2022-10-26T11:25:17.285Z,2.50
2022-10-26T11:27:48.827Z,3.10
2022-10-26T11:30:20.773Z,2.63
2022-10-26T11:32:54.582Z,2.63
2022-10-26T11:35:27.996Z,2.73
2022-10-26T11:38:03.747Z,2.60
2022-10-26T11:40:43.352Z,4.00
2022-10-26T11:43:18.319Z,2.93
2022-10-26T11:45:49.409Z,2.20
2022-10-26T11:48:24.091Z,2.53
2022-10-26T11:50:55.279Z,2.20
2022-10-26T11:53:28.067Z,2.77
2022-10-26T11:55:59.075Z,2.60
2022-10-26T11:58:28.923Z,2.50
2022-10-26T12:01:01.352Z,2.20
2022-10-26T12:03:33.757Z,2.57
2022-10-26T12:06:01.394Z,2.03
2022-10-26T12:08:33.601Z,2.30
2022-10-26T12:11:11.036Z,2.30
2022-10-26T12:13:45.079Z,2.13
2022-10-26T12:16:21.897Z,2.50
2022-10-26T12:18:56.368Z,2.10
2022-10-26T12:21:28.784Z,2.03
2022-10-26T12:23:59.840Z,2.27
2022-10-26T12:26:56.393Z,2.47
2022-10-26T12:29:35.691Z,2.37
2022-10-26T12:32:05.094Z,2.27
2022-10-26T12:34:58.815Z,2.10
2022-10-26T12:37:32.486Z,1.93
2022-10-26T12:40:33.737Z,2.23
2022-10-26T12:43:34.436Z,2.40
2022-10-26T12:46:41.967Z,2.10
2022-10-26T12:49:54.310Z,1.97
2022-10-26T12:52:27.182Z,2.07
2022-10-26T12:55:36.342Z,2.07
2022-10-26T12:58:25.527Z,2.60
2022-10-26T13:01:16.254Z,2.33
2022-10-26T13:03:53.885Z,2.37
2022-10-26T13:06:46.629Z,2.27
2022-10-26T13:09:21.429Z,1.90
2022-10-26T13:11:51.502Z,1.73
2022-10-26T13:14:25.125Z,2.03
2022-10-26T13:16:53.728Z,2.07
2022-10-26T13:19:25.926Z,3.00
2022-10-26T13:21:54.115Z,2.10
2022-10-26T13:24:26.161Z,1.80
2022-10-26T13:27:26.385Z,1.87
2022-10-26T13:30:20.062Z,1.83
2022-10-26T13:32:53.459Z,1.90
2022-10-26T13:35:23.307Z,2.30
2022-10-26T13:37:53.926Z,1.70
2022-10-26T13:40:24.445Z,1.70
2022-10-26T13:42:56.899Z,1.63
2022-10-26T13:45:28.749Z,1.60
2022-10-26T13:48:02.554Z,2.20
2022-10-26T13:50:37.277Z,1.60
2022-10-26T13:53:09.370Z,1.60
2022-10-26T13:55:44.860Z,1.77
2022-10-26T13:58:19.548Z,1.90
2022-10-26T14:01:16.595Z,1.50
2022-10-26T14:03:45.027Z,2.13
2022-10-26T14:06:18.989Z,1.80
2022-10-26T14:08:49.458Z,1.90
2022-10-26T14:11:20.856Z,1.63
2022-10-26T14:13:50.845Z,1.77
2022-10-26T14:16:21.496Z,1.27
2022-10-26T14:18:49.847Z,2.00
2022-10-26T14:21:19.769Z,1.60
2022-10-26T14:23:50.207Z,1.87
2022-10-26T14:26:22.108Z,1.53
2022-10-26T14:28:53.022Z,1.80
2022-10-26T14:31:25.627Z,1.70
2022-10-26T14:33:53.978Z,2.20
2022-10-26T14:36:26.687Z,1.73
2022-10-26T14:39:00.109Z,1.90
2022-10-26T14:41:28.793Z,1.93
2022-10-26T14:43:58.896Z,1.70
2022-10-26T14:46:33.679Z,2.10
2022-10-26T14:49:03.029Z,2.03
2022-10-26T14:51:32.071Z,2.10
2022-10-26T14:54:01.676Z,1.60
2022-10-26T14:56:39.552Z,2.20
2022-10-26T14:59:12.504Z,2.00
2022-10-26T15:01:52.081Z,1.70
2022-10-26T15:04:32.816Z,1.97
2022-10-26T15:07:10.255Z,1.77
2022-10-26T15:09:43.800Z,3.40
2022-10-26T15:12:32.531Z,2.03
2022-10-26T15:15:11.627Z,1.80
2022-10-26T15:17:42.907Z,2.03
2022-10-26T15:20:19.020Z,2.70
2022-10-26T15:22:52.858Z,2.10
2022-10-26T15:25:24.074Z,1.90
2022-10-26T15:27:52.504Z,2.03
2022-10-26T15:30:24.403Z,1.80
2022-10-26T15:32:54.199Z,2.23
2022-10-26T15:35:31.173Z,1.97
2022-10-26T15:38:00.930Z,2.03
2022-10-26T15:40:30.586Z,2.20
2022-10-26T15:43:00.822Z,2.40
2022-10-26T15:45:31.131Z,2.40
2022-10-26T15:48:16.711Z,1.90
2022-10-26T15:50:44.365Z,2.53
2022-10-26T15:53:19.125Z,2.17
2022-10-26T15:55:46.865Z,1.40
2022-10-26T15:58:15.600Z,2.40
2022-10-26T16:00:43.203Z,1.77
2022-10-26T16:03:14.590Z,1.67
2022-10-26T16:05:42.681Z,2.20
2022-10-26T16:08:17.721Z,2.27
2022-10-26T16:10:46.567Z,2.40
2022-10-26T16:13:15.072Z,2.63
2022-10-26T16:15:43.662Z,2.70
2022-10-26T16:18:12.730Z,1.90
2022-10-26T16:20:40.566Z,2.33
2022-10-26T16:23:08.475Z,4.77
2022-10-26T16:25:42.385Z,2.97
2022-10-26T16:28:12.456Z,2.53
2022-10-26T16:33:08.531Z,3.03
2022-10-26T16:35:37.490Z,2.37
2022-10-26T16:38:05.102Z,1.93
2022-10-26T16:40:32.708Z,2.87
2022-10-26T16:43:00.245Z,2.60
2022-10-26T16:45:27.905Z,2.30
2022-10-26T16:47:55.499Z,1.80
2022-10-26T16:50:24.133Z,2.90
2022-10-26T16:52:53.050Z,2.60
2022-10-26T16:55:24.354Z,2.40
2022-10-26T16:57:52.250Z,3.07
2022-10-26T17:00:21.950Z,2.87
2022-10-26T17:02:49.683Z,2.80
2022-10-26T17:05:17.408Z,3.70
2022-10-26T17:07:44.985Z,2.53
2022-10-26T17:10:13.876Z,2.60
2022-10-26T17:12:41.578Z,2.53
2022-10-26T17:15:10.109Z,2.47
2022-10-26T17:17:37.800Z,2.33
2022-10-26T17:20:06.244Z,2.70
2022-10-26T17:22:34.006Z,2.27
2022-10-26T17:25:01.593Z,3.27
2022-10-26T17:27:30.564Z,2.67
2022-10-26T17:29:58.148Z,2.83
2022-10-26T17:32:25.787Z,3.20
2022-10-26T17:34:53.666Z,3.37
2022-10-26T17:37:21.401Z,3.50
2022-10-26T17:39:49.036Z,3.27
2022-10-26T17:42:16.740Z,3.53
2022-10-26T17:44:45.814Z,3.57
2022-10-26T17:47:13.421Z,3.50
2022-10-26T17:49:40.942Z,2.80
2022-10-26T17:52:08.541Z,3.23
2022-10-26T17:54:36.243Z,2.87
2022-10-26T17:57:04.219Z,4.50
2022-10-26T17:59:31.788Z,3.50
2022-10-26T18:02:01.186Z,4.90
2022-10-26T18:04:28.863Z,3.53
2022-10-26T18:06:56.714Z,3.50
2022-10-26T18:09:24.359Z,4.07
2022-10-26T18:11:54.905Z,4.17
2022-10-26T18:14:23.609Z,4.30
2022-10-26T18:16:51.257Z,3.60
2022-10-26T18:19:20.593Z,3.47
2022-10-26T18:21:48.183Z,3.33
2022-10-26T18:24:15.847Z,3.87
2022-10-26T18:26:43.436Z,3.93
2022-10-26T18:29:13.634Z,5.00
2022-10-26T18:31:41.227Z,4.07
2022-10-26T18:34:08.779Z,4.05
2022-10-26T18:39:05.602Z,3.80
2022-10-26T18:41:33.229Z,4.07
2022-10-26T18:44:02.134Z,5.00
2022-10-26T18:46:33.418Z,4.87
2022-10-26T18:49:01.231Z,3.90
2022-10-26T18:51:32.363Z,4.77
2022-10-26T18:54:01.675Z,4.50
2022-10-26T18:56:29.303Z,5.03
2022-10-26T18:58:59.170Z,4.80
2022-10-26T19:01:28.811Z,5.27
2022-10-26T19:03:58.255Z,5.53
2022-10-26T19:06:28.491Z,4.90
2022-10-26T19:08:57.534Z,6.13
2022-10-26T19:11:30.909Z,4.93
2022-10-26T19:13:58.998Z,4.83
2022-10-26T19:19:17.230Z,5.20
2022-10-26T19:21:45.320Z,4.90
2022-10-26T19:24:15.219Z,5.27
2022-10-26T19:26:45.003Z,5.03
2022-10-26T19:29:15.729Z,5.03
2022-10-26T19:31:44.456Z,5.00
2022-10-26T19:34:14.065Z,5.17
2022-10-26T19:36:45.224Z,3.97
2022-10-26T19:39:13.887Z,4.90
2022-10-26T19:41:42.148Z,4.87
2022-10-26T19:44:12.259Z,4.20
2022-10-26T19:46:40.432Z,4.40
2022-10-26T19:49:08.769Z,4.87
2022-10-26T19:51:36.711Z,4.50
2022-10-26T19:54:06.679Z,5.00
2022-10-26T19:56:35.622Z,4.73
2022-10-26T19:59:03.689Z,4.87
2022-10-26T20:01:33.018Z,4.60
2022-10-26T20:04:02.302Z,3.87
2022-10-26T20:06:30.950Z,5.17
2022-10-26T20:08:59.792Z,4.50
2022-10-26T20:11:27.479Z,5.23
2022-10-26T20:13:55.847Z,4.20
2022-10-26T20:16:23.493Z,4.70
2022-10-26T20:18:52.549Z,4.97
2022-10-26T20:21:23.627Z,4.87
2022-10-26T20:23:51.260Z,5.20
2022-10-26T20:26:19.976Z,5.17
2022-10-26T20:28:50.727Z,4.40
2022-10-26T20:31:18.566Z,4.93
2022-10-26T20:33:46.205Z,4.83
2022-10-26T20:36:15.344Z,4.83
2022-10-26T20:38:43.640Z,4.63
2022-10-26T20:41:12.872Z,4.27
2022-10-26T20:43:41.448Z,4.90
2022-10-26T20:46:11.352Z,4.73
2022-10-26T20:48:39.700Z,4.70
2022-10-26T20:51:14.691Z,5.47
2022-10-26T20:53:51.267Z,4.90
2022-10-26T20:56:24.545Z,4.87
2022-10-26T20:58:54.921Z,4.00
2022-10-26T21:01:26.070Z,3.90
2022-10-26T21:03:54.452Z,4.03
2022-10-26T21:06:22.452Z,4.70
2022-10-26T21:08:52.223Z,4.40
2022-10-26T21:11:21.116Z,4.57
2022-10-26T21:13:50.347Z,4.30
2022-10-26T21:16:18.419Z,5.10
2022-10-26T21:18:46.101Z,3.83
2022-10-26T21:21:13.781Z,4.53
2022-10-26T21:23:42.211Z,4.13
2022-10-26T21:26:11.831Z,4.80
2022-10-26T21:28:41.921Z,3.90
2022-10-26T21:31:11.248Z,4.30
2022-10-26T21:33:38.902Z,4.20
2022-10-26T21:36:08.432Z,4.40
2022-10-26T21:38:36.563Z,4.10
2022-10-26T21:41:04.722Z,3.73
2022-10-26T21:43:34.360Z,3.83
2022-10-26T21:46:03.921Z,3.90
2022-10-26T21:48:32.915Z,3.87
2022-10-26T21:51:02.285Z,3.83
2022-10-26T21:53:30.429Z,3.73
2022-10-26T21:56:01.885Z,3.70
2022-10-26T21:58:30.049Z,3.80
2022-10-26T22:01:06.765Z,5.60
2022-10-26T22:03:34.449Z,3.67
2022-10-26T22:06:02.291Z,3.63
2022-10-26T22:08:30.234Z,3.93
2022-10-26T22:10:58.153Z,4.80
2022-10-26T22:13:26.318Z,4.23
2022-10-26T22:16:02.681Z,3.47
2022-10-26T22:18:35.449Z,4.17
2022-10-26T22:21:03.585Z,3.70
2022-10-26T22:23:33.806Z,3.57
2022-10-26T22:26:05.057Z,3.83
2022-10-26T22:28:36.252Z,3.20
2022-10-26T22:31:06.897Z,3.80
2022-10-26T22:33:36.605Z,3.80
2022-10-26T22:36:05.843Z,3.30
2022-10-26T22:38:33.650Z,3.80
2022-10-26T22:41:02.008Z,3.87
2022-10-26T22:43:30.999Z,3.47
2022-10-26T22:46:02.661Z,3.10
2022-10-26T22:48:30.391Z,3.60
2022-10-26T22:50:59.786Z,3.80
2022-10-26T22:53:27.459Z,3.80
2022-10-26T22:55:55.038Z,3.03
2022-10-26T22:58:22.617Z,3.47
2022-10-26T23:00:50.549Z,3.17
2022-10-26T23:03:18.317Z,4.13
2022-10-26T23:05:46.818Z,3.23
2022-10-26T23:08:15.963Z,3.80
2022-10-26T23:10:43.500Z,3.40
2022-10-26T23:13:11.187Z,3.20
2022-10-26T23:15:38.784Z,3.77
2022-10-26T23:18:06.477Z,3.20
2022-10-26T23:20:35.145Z,3.83
2022-10-26T23:23:03.348Z,3.50
2022-10-26T23:25:32.281Z,3.17
2022-10-26T23:27:59.940Z,4.77
2022-10-26T23:30:27.558Z,3.90
2022-10-26T23:32:57.091Z,3.53
2022-10-26T23:35:24.774Z,3.87
2022-10-26T23:37:52.465Z,3.20
2022-10-26T23:40:20.034Z,3.90
2022-10-26T23:42:49.514Z,3.23
2022-10-26T23:45:17.563Z,3.90
2022-10-26T23:47:45.169Z,3.80
2022-10-26T23:50:12.780Z,3.20
2022-10-26T23:52:40.394Z,4.27
2022-10-26T23:55:08.791Z,3.87
2022-10-26T23:57:36.462Z,4.13
